Time;durP1;ratioP1;P1;durP2;ratioP2;P2;SDS_P1;SDS_P2;PMS_P1;PMS_P2;Temp;Humidity;BMP_temperature;BMP_pressure;BME280_temperature;BME280_humidity;BME280_pressure;Samples;Min_cycle;Max_cycle;Signal;HPM_P1;HPM_P2
2023/04/12 00:02:18;;;;;;;7.72;3.20;;;;;;;;;;5013951;28;20111;-69
2023/04/12 00:04:44;;;;;;;12.15;3.00;;;;;;;;;;5007635;28;20048;-68
2023/04/12 00:07:10;;;;;;;12.25;3.75;;;;;;;;;;5013630;28;20421;-68
2023/04/12 00:09:38;;;;;;;7.35;3.50;;;;;;;;;;5047429;28;20144;-68
2023/04/12 00:12:05;;;;;;;7.68;3.30;;;;;;;;;;5029835;28;20084;-68
2023/04/12 00:14:31;;;;;;;7.32;2.90;;;;;;;;;;5029278;28;20151;-68
2023/04/12 00:16:57;;;;;;;10.52;3.00;;;;;;;;;;5021246;28;20041;-68
2023/04/12 00:19:24;;;;;;;9.95;3.30;;;;;;;;;;5028882;28;20149;-68
2023/04/12 00:21:50;;;;;;;9.02;3.30;;;;;;;;;;5014423;28;20068;-68
2023/04/12 00:24:18;;;;;;;7.97;2.60;;;;;;;;;;5031209;28;20094;-68
2023/04/12 00:26:44;;;;;;;6.10;2.25;;;;;;;;;;5030204;28;20045;-68
2023/04/12 00:29:10;;;;;;;8.52;2.70;;;;;;;;;;5031257;28;20355;-68
2023/04/12 00:31:36;;;;;;;8.90;3.10;;;;;;;;;;5033501;28;20049;-68
2023/04/12 00:34:03;;;;;;;5.05;2.33;;;;;;;;;;5028808;28;20095;-68
2023/04/12 00:36:29;;;;;;;5.75;2.92;;;;;;;;;;5028625;28;20033;-68
2023/04/12 00:38:55;;;;;;;13.68;4.00;;;;;;;;;;5030906;28;20041;-68
2023/04/12 00:41:23;;;;;;;5.35;2.65;;;;;;;;;;5021599;28;20044;-68
2023/04/12 00:43:50;;;;;;;5.80;3.33;;;;;;;;;;5030368;28;20037;-68
2023/04/12 00:46:18;;;;;;;8.02;3.05;;;;;;;;;;5032463;28;20438;-68
2023/04/12 00:48:46;;;;;;;6.50;2.88;;;;;;;;;;5050273;28;20268;-68
2023/04/12 00:51:13;;;;;;;7.85;3.53;;;;;;;;;;5031652;28;20033;-68
2023/04/12 00:53:40;;;;;;;10.07;3.30;;;;;;;;;;5032239;28;20049;-68
2023/04/12 00:56:07;;;;;;;5.15;3.05;;;;;;;;;;5032796;28;20117;-69
2023/04/12 00:58:33;;;;;;;6.07;3.08;;;;;;;;;;5030811;28;20048;-67
2023/04/12 01:00:59;;;;;;;7.68;3.67;;;;;;;;;;5015283;28;20069;-67
2023/04/12 01:03:26;;;;;;;7.85;3.67;;;;;;;;;;5013344;28;20066;-68
2023/04/12 01:06:12;;;;;;;9.60;4.22;;;;;;;;;;5011643;28;20049;-68
2023/04/12 01:08:47;;;;;;;12.15;3.08;;;;;;;;;;5047837;28;20056;-68
2023/04/12 01:11:33;;;;;;;8.52;2.85;;;;;;;;;;5025884;28;20042;-68
2023/04/12 01:14:08;;;;;;;8.38;3.13;;;;;;;;;;5017266;28;20048;-67
2023/04/12 01:16:44;;;;;;;5.25;2.70;;;;;;;;;;5026760;28;20040;-67
2023/04/12 01:19:32;;;;;;;7.22;3.60;;;;;;;;;;5031605;28;20036;-67
2023/04/12 01:22:12;;;;;;;5.50;2.90;;;;;;;;;;5005782;28;20077;-67
2023/04/12 01:24:46;;;;;;;8.50;3.78;;;;;;;;;;5029523;28;20037;-67
2023/04/12 01:27:22;;;;;;;5.72;2.75;;;;;;;;;;5011144;28;20548;-67
2023/04/12 01:29:50;;;;;;;8.07;3.08;;;;;;;;;;5027744;28;20041;-67
2023/04/12 01:32:16;;;;;;;11.48;3.67;;;;;;;;;;5015514;28;20327;-67
2023/04/12 01:34:43;;;;;;;6.88;2.97;;;;;;;;;;5028521;28;20463;-67
2023/04/12 01:37:10;;;;;;;8.88;3.03;;;;;;;;;;5030178;28;20040;-67
2023/04/12 01:39:36;;;;;;;5.05;2.78;;;;;;;;;;5028156;28;20048;-68
2023/04/12 01:42:02;;;;;;;10.40;2.75;;;;;;;;;;5013900;28;20477;-67
2023/04/12 01:44:28;;;;;;;5.20;3.03;;;;;;;;;;5050194;28;20037;-68
2023/04/12 01:46:54;;;;;;;11.88;3.03;;;;;;;;;;5028325;28;20041;-67
2023/04/12 01:49:21;;;;;;;8.10;3.30;;;;;;;;;;5029953;28;20068;-68
2023/04/12 01:52:07;;;;;;;10.60;3.35;;;;;;;;;;5044948;28;20045;-67
2023/04/12 01:54:35;;;;;;;7.78;3.08;;;;;;;;;;5031595;28;20502;-68
2023/04/12 01:57:02;;;;;;;4.40;3.40;;;;;;;;;;5014801;28;20076;-68
2023/04/12 01:59:31;;;;;;;7.78;3.28;;;;;;;;;;5012420;28;20150;-67
2023/04/12 02:01:57;;;;;;;9.10;3.22;;;;;;;;;;5047154;28;20465;-68
2023/04/12 02:04:26;;;;;;;6.85;3.03;;;;;;;;;;5030762;28;20092;-67
2023/04/12 02:06:52;;;;;;;9.75;3.25;;;;;;;;;;5047035;28;20410;-67
2023/04/12 02:09:18;;;;;;;5.80;2.97;;;;;;;;;;5030004;28;20044;-68
2023/04/12 02:11:48;;;;;;;8.68;3.58;;;;;;;;;;5029879;28;20106;-67
2023/04/12 02:14:15;;;;;;;12.23;3.65;;;;;;;;;;4995050;28;20133;-67
2023/04/12 02:16:43;;;;;;;6.85;2.53;;;;;;;;;;5045971;28;20080;-67
2023/04/12 02:19:09;;;;;;;8.45;2.92;;;;;;;;;;5014418;28;20064;-68
2023/04/12 02:21:40;;;;;;;7.25;2.90;;;;;;;;;;4995320;28;20088;-68
2023/04/12 02:24:06;;;;;;;6.15;2.78;;;;;;;;;;5029846;28;20112;-67
2023/04/12 02:26:32;;;;;;;8.05;2.53;;;;;;;;;;5029964;28;20102;-68
2023/04/12 02:28:58;;;;;;;6.05;2.65;;;;;;;;;;5026965;28;20040;-68
2023/04/12 02:31:24;;;;;;;6.28;3.20;;;;;;;;;;5048664;28;20487;-68
2023/04/12 02:33:51;;;;;;;5.93;2.97;;;;;;;;;;5030057;28;20064;-68
2023/04/12 02:36:17;;;;;;;6.45;2.83;;;;;;;;;;5031006;28;20520;-68
2023/04/12 02:38:43;;;;;;;6.22;3.08;;;;;;;;;;5029456;28;20248;-68
2023/04/12 02:41:09;;;;;;;5.95;2.38;;;;;;;;;;5014543;28;20049;-69
2023/04/12 02:43:35;;;;;;;4.40;2.33;;;;;;;;;;5028679;28;20041;-68
2023/04/12 02:46:01;;;;;;;6.65;2.88;;;;;;;;;;5029624;28;20048;-68
2023/04/12 02:48:27;;;;;;;6.90;2.28;;;;;;;;;;5029935;28;20554;-68
2023/04/12 02:50:54;;;;;;;7.85;2.92;;;;;;;;;;5030073;28;20499;-67
2023/04/12 02:53:20;;;;;;;5.53;2.80;;;;;;;;;;5012578;28;20059;-67
2023/04/12 02:55:47;;;;;;;6.68;3.13;;;;;;;;;;5033555;28;20044;-67
2023/04/12 03:04:21;;;;;;;3.13;2.10;;;;;;;;;;5023983;28;20510;-67
2023/04/12 03:06:56;;;;;;;9.95;2.30;;;;;;;;;;5010859;28;20048;-67
2023/04/12 03:09:23;;;;;;;3.47;2.40;;;;;;;;;;5030391;28;20151;-68
2023/04/12 03:11:50;;;;;;;9.25;2.80;;;;;;;;;;5012437;28;20040;-67
2023/04/12 03:14:16;;;;;;;9.68;2.92;;;;;;;;;;5030437;28;20254;-67
2023/04/12 03:16:43;;;;;;;4.75;2.55;;;;;;;;;;5013457;28;20048;-67
2023/04/12 03:19:09;;;;;;;8.88;2.42;;;;;;;;;;5029825;28;20044;-67
2023/04/12 03:21:36;;;;;;;7.88;2.55;;;;;;;;;;4996353;28;20040;-68
2023/04/12 03:24:05;;;;;;;7.43;2.42;;;;;;;;;;5048243;28;20321;-67
2023/04/12 03:26:31;;;;;;;7.10;2.88;;;;;;;;;;5011643;28;20045;-68
2023/04/12 03:29:06;;;;;;;8.23;2.58;;;;;;;;;;5013055;28;20439;-67
2023/04/12 03:31:33;;;;;;;6.85;2.15;;;;;;;;;;5013544;28;20040;-68
2023/04/12 03:33:59;;;;;;;6.45;2.70;;;;;;;;;;5011519;28;20636;-68
2023/04/12 03:36:26;;;;;;;4.22;2.42;;;;;;;;;;5008156;28;20058;-67
2023/04/12 03:38:52;;;;;;;4.93;2.70;;;;;;;;;;5045158;28;20064;-68
2023/04/12 03:41:18;;;;;;;6.03;2.40;;;;;;;;;;5030400;28;20060;-68
2023/04/12 03:43:44;;;;;;;4.43;2.63;;;;;;;;;;5029601;28;20048;-68
2023/04/12 03:46:14;;;;;;;6.38;3.35;;;;;;;;;;4972471;28;20079;-68
2023/04/12 03:48:41;;;;;;;4.63;2.80;;;;;;;;;;5012458;28;20120;-68
2023/04/12 03:51:10;;;;;;;6.07;2.83;;;;;;;;;;5028630;28;20041;-68
2023/04/12 03:53:40;;;;;;;7.13;3.65;;;;;;;;;;5041203;28;20060;-68
2023/04/12 03:56:07;;;;;;;6.80;3.22;;;;;;;;;;5021184;28;20043;-68
2023/04/12 03:58:33;;;;;;;6.72;3.17;;;;;;;;;;5016476;28;20041;-68
2023/04/12 04:01:01;;;;;;;7.50;3.55;;;;;;;;;;5015607;28;20033;-69
2023/04/12 04:03:28;;;;;;;4.97;2.90;;;;;;;;;;5032116;28;20043;-70
2023/04/12 04:05:55;;;;;;;6.25;2.72;;;;;;;;;;5032675;28;20115;-68
2023/04/12 04:08:21;;;;;;;6.70;2.83;;;;;;;;;;5014140;28;20087;-68
2023/04/12 04:10:47;;;;;;;6.28;3.20;;;;;;;;;;5017010;28;20155;-68
2023/04/12 04:13:13;;;;;;;11.80;3.17;;;;;;;;;;5051916;28;20108;-68
2023/04/12 04:15:39;;;;;;;6.00;2.40;;;;;;;;;;5031069;28;20044;-68
2023/04/12 04:18:06;;;;;;;8.68;3.30;;;;;;;;;;5016604;28;20082;-68
2023/04/12 04:20:32;;;;;;;5.15;2.70;;;;;;;;;;4998335;28;20049;-69
2023/04/12 04:22:58;;;;;;;3.85;2.17;;;;;;;;;;5050681;28;20094;-69
2023/04/12 04:25:28;;;;;;;10.05;2.72;;;;;;;;;;5051456;28;20597;-69
2023/04/12 04:27:55;;;;;;;11.48;2.65;;;;;;;;;;5033554;28;20640;-69
2023/04/12 04:30:22;;;;;;;7.97;2.45;;;;;;;;;;5033317;28;20052;-69
2023/04/12 04:32:48;;;;;;;6.50;2.92;;;;;;;;;;5050526;28;20376;-69
2023/04/12 04:35:16;;;;;;;7.45;2.53;;;;;;;;;;4995582;28;20059;-69
2023/04/12 04:37:43;;;;;;;6.10;3.17;;;;;;;;;;5028730;28;20056;-70
2023/04/12 04:40:12;;;;;;;5.30;2.40;;;;;;;;;;5049711;28;20491;-71
2023/04/12 04:42:38;;;;;;;4.40;2.15;;;;;;;;;;5001249;28;20120;-70
2023/04/12 04:45:11;;;;;;;7.00;2.30;;;;;;;;;;5030509;28;20043;-70
2023/04/12 04:47:41;;;;;;;5.20;2.92;;;;;;;;;;5043888;28;20045;-70
2023/04/12 04:50:08;;;;;;;7.32;3.15;;;;;;;;;;5033159;28;20398;-70
2023/04/12 04:52:36;;;;;;;6.85;2.60;;;;;;;;;;5030554;28;20043;-70
2023/04/12 04:55:02;;;;;;;3.75;2.22;;;;;;;;;;5031027;28;20051;-70
2023/04/12 04:57:28;;;;;;;5.75;3.22;;;;;;;;;;5033166;28;20052;-70
2023/04/12 04:59:55;;;;;;;8.35;2.70;;;;;;;;;;5034015;28;20040;-69
2023/04/12 05:02:21;;;;;;;7.25;2.78;;;;;;;;;;5049577;28;20037;-68
2023/04/12 05:04:47;;;;;;;5.82;2.95;;;;;;;;;;5028807;28;20154;-70
2023/04/12 05:07:13;;;;;;;7.40;2.80;;;;;;;;;;5032660;28;20049;-70
2023/04/12 05:09:40;;;;;;;5.68;2.65;;;;;;;;;;5049474;28;20120;-71
2023/04/12 05:12:06;;;;;;;7.38;3.85;;;;;;;;;;5014661;28;20505;-70
2023/04/12 05:14:32;;;;;;;5.07;2.70;;;;;;;;;;5016663;28;20076;-72
2023/04/12 05:16:58;;;;;;;10.48;3.25;;;;;;;;;;5048367;28;20475;-70
2023/04/12 05:19:24;;;;;;;8.25;3.47;;;;;;;;;;5049303;28;20491;-71
2023/04/12 05:21:50;;;;;;;6.15;3.15;;;;;;;;;;5050008;28;20119;-71
2023/04/12 05:24:17;;;;;;;9.13;4.00;;;;;;;;;;5015711;28;20072;-70
2023/04/12 05:26:44;;;;;;;6.03;2.85;;;;;;;;;;4988076;28;20120;-71
2023/04/12 05:29:10;;;;;;;7.57;3.78;;;;;;;;;;5012754;28;20041;-70
2023/04/12 05:31:36;;;;;;;7.45;3.40;;;;;;;;;;5026018;28;20111;-70
2023/04/12 05:34:02;;;;;;;7.15;4.63;;;;;;;;;;5040993;28;20047;-70
2023/04/12 05:36:28;;;;;;;9.38;4.45;;;;;;;;;;5027091;28;20528;-71
2023/04/12 05:38:54;;;;;;;6.95;4.72;;;;;;;;;;5028991;28;20045;-71
2023/04/12 05:41:20;;;;;;;6.45;4.65;;;;;;;;;;5047762;28;20063;-71
2023/04/12 05:43:47;;;;;;;10.25;5.70;;;;;;;;;;5049011;28;20041;-71
2023/04/12 05:46:13;;;;;;;9.23;6.25;;;;;;;;;;5024414;28;20133;-71
2023/04/12 05:48:39;;;;;;;9.18;5.80;;;;;;;;;;4994486;28;20664;-71
2023/04/12 05:51:05;;;;;;;12.10;7.53;;;;;;;;;;5041527;28;20445;-71
2023/04/12 05:53:31;;;;;;;11.02;7.30;;;;;;;;;;5025423;28;20132;-71
2023/04/12 05:55:58;;;;;;;8.70;6.80;;;;;;;;;;5027133;28;20455;-71
2023/04/12 05:58:24;;;;;;;10.68;7.25;;;;;;;;;;5011627;28;20040;-71
2023/04/12 06:00:53;;;;;;;9.43;6.97;;;;;;;;;;5027377;28;20095;-71
2023/04/12 06:03:19;;;;;;;10.82;6.93;;;;;;;;;;5045090;28;20124;-71
2023/04/12 06:05:45;;;;;;;10.43;8.20;;;;;;;;;;5044073;28;20063;-71
2023/04/12 06:08:13;;;;;;;10.57;8.40;;;;;;;;;;5010310;28;20044;-71
2023/04/12 06:10:40;;;;;;;10.35;8.15;;;;;;;;;;5028743;28;20470;-72
2023/04/12 06:13:06;;;;;;;9.70;8.70;;;;;;;;;;5045450;28;20451;-71
2023/04/12 06:15:32;;;;;;;10.82;8.60;;;;;;;;;;5026588;28;20520;-71
2023/04/12 06:17:59;;;;;;;11.52;8.75;;;;;;;;;;5042382;28;20041;-71
2023/04/12 06:20:25;;;;;;;10.15;8.70;;;;;;;;;;5031461;28;20040;-71
2023/04/12 06:22:51;;;;;;;9.20;8.13;;;;;;;;;;5030890;28;20040;-71
2023/04/12 06:25:18;;;;;;;11.70;8.77;;;;;;;;;;5030012;28;20059;-71
2023/04/12 06:27:44;;;;;;;13.65;9.38;;;;;;;;;;5046654;28;20463;-71
2023/04/12 06:30:10;;;;;;;11.93;8.48;;;;;;;;;;5046820;28;20040;-71
2023/04/12 06:32:37;;;;;;;10.07;8.65;;;;;;;;;;5028467;28;20044;-72
2023/04/12 06:35:04;;;;;;;9.70;6.97;;;;;;;;;;5028437;28;20516;-71
2023/04/12 06:37:30;;;;;;;11.10;9.13;;;;;;;;;;5028166;28;20522;-72
2023/04/12 06:39:56;;;;;;;10.05;8.32;;;;;;;;;;5025443;28;20139;-71
2023/04/12 06:42:23;;;;;;;10.60;7.82;;;;;;;;;;5027798;28;20037;-71
2023/04/12 06:44:49;;;;;;;11.15;7.25;;;;;;;;;;5008160;28;20037;-72
2023/04/12 06:47:15;;;;;;;10.63;7.03;;;;;;;;;;5043154;28;20040;-72
2023/04/12 06:49:42;;;;;;;8.50;6.55;;;;;;;;;;5029413;28;20123;-71
2023/04/12 06:52:08;;;;;;;12.32;7.40;;;;;;;;;;5045454;28;20048;-73
2023/04/12 06:54:37;;;;;;;11.05;7.28;;;;;;;;;;5048140;28;20375;-72
2023/04/12 06:57:03;;;;;;;9.23;7.45;;;;;;;;;;5048419;28;20525;-72
2023/04/12 06:59:29;;;;;;;9.57;7.45;;;;;;;;;;5042989;28;20134;-71
2023/04/12 07:01:55;;;;;;;10.40;7.22;;;;;;;;;;5026198;28;20351;-72
2023/04/12 07:04:22;;;;;;;11.23;6.25;;;;;;;;;;5008492;28;20037;-71
2023/04/12 07:06:48;;;;;;;9.23;5.82;;;;;;;;;;5030642;28;20124;-71
2023/04/12 07:09:14;;;;;;;10.10;6.40;;;;;;;;;;5028952;28;20037;-72
2023/04/12 07:11:40;;;;;;;10.85;5.65;;;;;;;;;;5027566;28;20052;-73
2023/04/12 07:14:06;;;;;;;7.63;6.82;;;;;;;;;;5044316;28;20032;-73
2023/04/12 07:16:33;;;;;;;10.23;6.57;;;;;;;;;;5048122;28;20683;-73
2023/04/12 07:18:59;;;;;;;8.50;5.72;;;;;;;;;;5028439;28;20041;-72
2023/04/12 07:21:26;;;;;;;8.30;6.00;;;;;;;;;;5011332;28;20143;-73
2023/04/12 07:23:52;;;;;;;9.73;6.70;;;;;;;;;;5030682;28;20045;-72
2023/04/12 07:26:18;;;;;;;6.90;5.18;;;;;;;;;;5025516;28;20046;-73
2023/04/12 07:28:45;;;;;;;9.05;6.00;;;;;;;;;;5009525;28;20041;-71
2023/04/12 07:31:11;;;;;;;7.28;5.00;;;;;;;;;;5029073;28;20400;-71
2023/04/12 07:33:37;;;;;;;9.23;6.20;;;;;;;;;;5012127;28;20371;-72
2023/04/12 07:36:04;;;;;;;6.47;5.28;;;;;;;;;;5047698;28;20098;-70
2023/04/12 07:38:30;;;;;;;8.40;5.05;;;;;;;;;;5044583;28;20124;-71
2023/04/12 07:40:56;;;;;;;7.72;5.18;;;;;;;;;;5025413;28;20033;-71
2023/04/12 07:43:22;;;;;;;5.82;4.53;;;;;;;;;;5022074;28;20550;-71
2023/04/12 07:45:49;;;;;;;7.45;5.80;;;;;;;;;;5043030;28;20284;-71
2023/04/12 07:48:15;;;;;;;7.30;4.68;;;;;;;;;;5024409;28;20140;-71
2023/04/12 07:50:42;;;;;;;5.95;4.15;;;;;;;;;;5006334;28;20116;-71
2023/04/12 07:53:19;;;;;;;7.15;5.10;;;;;;;;;;5015159;28;20060;-71
2023/04/12 07:55:46;;;;;;;5.97;4.55;;;;;;;;;;5023929;28;20131;-71
2023/04/12 07:58:12;;;;;;;8.60;4.80;;;;;;;;;;5043552;28;20045;-72
2023/04/12 08:00:38;;;;;;;5.45;4.50;;;;;;;;;;5026193;28;20064;-72
2023/04/12 08:03:04;;;;;;;6.35;4.30;;;;;;;;;;5024568;28;20405;-72
2023/04/12 08:05:30;;;;;;;8.05;4.45;;;;;;;;;;5018833;28;20062;-72
2023/04/12 08:07:56;;;;;;;6.28;4.07;;;;;;;;;;5007764;28;20048;-72
2023/04/12 08:10:22;;;;;;;6.15;3.72;;;;;;;;;;5015412;28;20211;-71
2023/04/12 08:12:49;;;;;;;4.57;2.97;;;;;;;;;;5014066;28;20207;-72
2023/04/12 08:15:15;;;;;;;5.82;3.65;;;;;;;;;;5016987;28;20077;-71
2023/04/12 08:17:42;;;;;;;5.13;3.80;;;;;;;;;;5020371;28;20096;-71
2023/04/12 08:20:09;;;;;;;5.60;3.85;;;;;;;;;;5019952;28;20118;-71
2023/04/12 08:22:35;;;;;;;4.18;3.03;;;;;;;;;;5014114;28;20112;-72
2023/04/12 08:25:01;;;;;;;5.03;3.47;;;;;;;;;;5024174;28;20044;-72
2023/04/12 08:27:29;;;;;;;5.63;3.53;;;;;;;;;;5014413;28;20053;-72
2023/04/12 08:29:55;;;;;;;6.03;3.15;;;;;;;;;;5004745;28;20084;-72
2023/04/12 08:32:21;;;;;;;5.70;3.38;;;8.70;99.90;;;;;;5021892;28;20132;-73
2023/04/12 08:34:47;;;;;;;4.68;3.10;;;8.40;99.90;;;;;;5023827;28;20036;-72
2023/04/12 08:37:13;;;;;;;5.95;3.33;;;8.40;99.90;;;;;;5020229;28;20049;-72
2023/04/12 08:39:39;;;;;;;5.38;3.10;;;8.40;99.90;;;;;;5023758;28;20140;-72
2023/04/12 08:42:05;;;;;;;5.15;3.35;;;8.40;99.90;;;;;;5024445;28;20039;-72
2023/04/12 08:44:35;;;;;;;5.15;3.28;;;8.40;99.90;;;;;;5027772;28;20158;-72
2023/04/12 08:47:06;;;;;;;8.05;2.95;;;8.50;99.90;;;;;;5027300;28;20067;-71
2023/04/12 08:49:32;;;;;;;5.65;2.90;;;;;;;;;;5025996;28;20111;-71
2023/04/12 08:52:06;;;;;;;5.47;2.85;;;;;;;;;;5010789;28;20507;-72
2023/04/12 08:54:32;;;;;;;;;;;;;;;;;;5024416;28;20144;-71
2023/04/12 08:57:00;;;;;;;11.43;3.45;;;;;;;;;;5020298;28;20196;-71
2023/04/12 08:59:29;;;;;;;8.05;2.92;;;;;;;;;;5025212;28;20065;-71
2023/04/12 09:01:56;;;;;;;8.27;3.20;;;;;;;;;;5021162;28;20041;-71
2023/04/12 09:04:22;;;;;;;7.85;2.33;;;;;;;;;;5026812;28;20033;-72
2023/04/12 09:06:48;;;;;;;7.90;2.40;;;;;;;;;;5029678;28;20131;-71
2023/04/12 09:09:15;;;;;;;4.97;2.47;;;;;;;;;;5025037;28;20045;-71
2023/04/12 09:11:41;;;;;;;6.88;3.25;;;;;;;;;;5045274;28;20461;-71
2023/04/12 09:14:23;;;;;;;4.53;2.65;;;;;;;;;;5035920;28;20135;-71
2023/04/12 09:16:49;;;;;;;7.22;3.10;;;;;;;;;;5024402;28;20044;-71
2023/04/12 09:19:15;;;;;;;10.57;3.55;;;8.50;99.90;;;;;;5026279;28;20116;-71
2023/04/12 09:21:55;;;;;;;6.75;3.25;;;;;;;;;;5031790;28;20087;-71
2023/04/12 09:24:23;;;;;;;8.45;3.95;;;;;;;;;;5028399;28;20037;-71
2023/04/12 09:27:02;;;;;;;6.05;3.58;;;;;;;;;;5043649;28;20045;-71
2023/04/12 09:29:29;;;;;;;8.40;3.80;;;;;;;;;;5044793;28;20146;-71
2023/04/12 09:32:12;;;;;;;11.73;4.50;;;9.40;99.90;;;;;;5045413;28;20047;-71
2023/04/12 09:34:56;;;;;;;9.52;4.03;;;9.80;99.90;;;;;;5048034;28;20076;-71
2023/04/12 09:37:23;;;;;;;9.55;3.45;;;;;;;;;;5011845;28;20049;-71
2023/04/12 09:40:00;;;;;;;9.43;3.75;;;10.00;99.90;;;;;;5047418;28;20529;-71
2023/04/12 09:42:26;;;;;;;7.85;3.72;;;;;;;;;;5030866;28;20041;-71
2023/04/12 09:44:53;;;;;;;7.00;3.88;;;10.30;99.90;;;;;;5030162;28;20072;-71
2023/04/12 09:47:19;;;;;;;11.70;4.05;;;10.40;99.90;;;;;;5022439;28;20056;-71
2023/04/12 09:49:45;;;;;;;9.88;3.97;;;10.40;99.90;;;;;;5045659;28;20051;-71
2023/04/12 09:52:12;;;;;;;14.73;4.00;;;10.40;99.90;;;;;;5039608;28;20037;-70
2023/04/12 09:54:42;;;;;;;11.55;2.67;;;10.40;99.90;;;;;;5027102;28;20076;-70
2023/04/12 09:57:08;;;;;;;12.02;3.13;;;10.40;99.90;;;;;;5041600;28;20447;-71
2023/04/12 09:59:39;;;;;;;14.00;4.22;;;10.40;99.90;;;;;;5045489;28;20040;-70
2023/04/12 10:02:17;;;;;;;8.63;3.38;;;10.50;99.90;;;;;;5007260;28;20056;-70
2023/04/12 10:04:44;;;;;;;7.68;3.45;;;10.50;99.90;;;;;;5047459;28;20558;-70
2023/04/12 10:07:11;;;;;;;17.08;4.75;;;10.50;99.90;;;;;;5043090;28;20499;-70
2023/04/12 10:09:39;;;;;;;6.30;3.17;;;10.60;99.90;;;;;;5045351;28;20848;-70
2023/04/12 10:12:06;;;;;;;15.75;3.83;;;10.60;99.90;;;;;;5028410;28;20313;-71
2023/04/12 10:14:32;;;;;;;7.60;3.08;;;10.70;99.90;;;;;;5047789;28;20498;-70
2023/04/12 10:16:59;;;;;;;14.82;3.78;;;10.70;99.90;;;;;;5027363;28;20155;-70
2023/04/12 10:19:27;;;;;;;15.45;4.07;;;10.80;99.90;;;;;;5030536;28;20463;-70
2023/04/12 10:21:55;;;;;;;9.32;3.33;;;10.80;99.90;;;;;;5020886;28;20033;-70
2023/04/12 10:24:25;;;;;;;11.60;3.58;;;10.80;99.90;;;;;;5045973;28;20095;-70
2023/04/12 10:26:54;;;;;;;8.38;3.53;;;10.80;99.90;;;;;;5043539;28;20033;-70
2023/04/12 10:29:42;;;;;;;8.80;3.55;;;10.80;99.90;;;;;;5044323;28;20409;-70
2023/04/12 10:32:21;;;;;;;10.15;3.50;;;10.80;99.90;;;;;;5029450;28;20126;-70
2023/04/12 10:34:55;;;;;;;14.63;3.65;;;;;;;;;;5027119;28;20047;-70
2023/04/12 10:37:21;;;;;;;13.98;3.95;;;;;;;;;;5028540;28;20136;-70
2023/04/12 10:39:52;;;;;;;9.05;3.50;;;;;;;;;;5024276;28;20052;-70
2023/04/12 10:42:24;;;;;;;10.82;3.65;;;;;;;;;;5029632;28;20513;-70
2023/04/12 10:44:54;;;;;;;7.63;3.40;;;;;;;;;;5028620;28;20521;-70
2023/04/12 10:47:43;;;;;;;8.30;2.83;;;;;;;;;;5041088;28;20048;-71
2023/04/12 10:50:26;;;;;;;10.57;3.13;;;;;;;;;;5030211;28;20040;-70
2023/04/12 10:52:52;;;;;;;;;;;;;;;;;;5026212;28;20502;-70
2023/04/12 10:55:28;;;;;;;7.93;2.65;;;;;;;;;;5030015;28;19916;-70
2023/04/12 10:57:55;;;;;;;7.07;2.88;;;;;;;;;;5021814;28;20083;-70
2023/04/12 11:00:21;;;;;;;9.93;3.35;;;;;;;;;;5024845;28;20119;-70
2023/04/12 11:03:08;;;;;;;7.28;3.45;;;;;;;;;;5027357;28;20485;-70
2023/04/12 11:05:54;;;;;;;11.65;3.15;;;;;;;;;;5027038;28;20068;-70
2023/04/12 11:08:20;;;;;;;7.55;2.28;;;;;;;;;;5049498;28;20079;-70
2023/04/12 11:10:46;;;;;;;12.02;2.80;;;;;;;;;;5011828;28;20406;-70
2023/04/12 11:13:14;;;;;;;7.35;2.60;;;;;;;;;;5043005;28;20070;-70
2023/04/12 11:15:40;;;;;;;6.00;2.40;;;;;;;;;;5025638;28;20439;-70
2023/04/12 11:18:07;;;;;;;7.93;3.67;;;;;;;;;;5046607;28;20504;-70
2023/04/12 11:20:33;;;;;;;18.65;4.35;;;;;;;;;;5009851;28;20036;-70
2023/04/12 11:23:00;;;;;;;19.83;3.35;;;;;;;;;;5028879;28;20136;-70
2023/04/12 11:25:26;;;;;;;7.70;3.03;;;;;;;;;;5027473;28;20464;-70
2023/04/12 11:27:55;;;;;;;8.75;3.78;;;;;;;;;;5013702;28;20487;-70
2023/04/12 11:30:22;;;;;;;13.07;4.20;;;;;;;;;;5043077;28;20106;-69
2023/04/12 11:32:48;;;;;;;8.32;3.10;;;;;;;;;;4994709;28;20049;-70
2023/04/12 11:35:15;;;;;;;7.85;3.00;;;;;;;;;;4993521;28;20156;-69
2023/04/12 11:37:43;;;;;;;12.98;3.67;;;;;;;;;;5011314;28;20044;-69
2023/04/12 11:40:09;;;;;;;9.80;3.47;;;;;;;;;;5005999;28;20048;-69
2023/04/12 11:42:35;;;;;;;11.77;4.53;;;;;;;;;;5024897;28;20033;-70
2023/04/12 11:45:01;;;;;;;12.50;3.90;;;;;;;;;;5024721;28;20518;-70
2023/04/12 11:47:28;;;;;;;9.90;3.88;;;;;;;;;;5009711;28;20041;-70
2023/04/12 11:49:58;;;;;;;11.23;4.45;;;;;;;;;;4997076;28;20045;-70
2023/04/12 11:52:32;;;;;;;11.00;4.07;;;;;;;;;;5028885;28;20053;-69
2023/04/12 11:55:06;;;;;;;9.65;3.80;;;;;;;;;;5045130;28;20076;-70
2023/04/12 11:57:33;;;;;;;16.15;4.22;;;;;;;;;;5045642;28;20037;-69
2023/04/12 11:59:59;;;;;;;12.57;3.35;;;;;;;;;;5012287;28;20048;-70
2023/04/12 12:02:25;;;;;;;13.73;4.63;;;;;;;;;;5011124;28;20087;-70
2023/04/12 12:04:53;;;;;;;13.80;4.20;;;;;;;;;;5027145;28;20171;-69
2023/04/12 12:07:20;;;;;;;11.65;4.28;;;;;;;;;;5028282;28;20059;-69
2023/04/12 12:09:46;;;;;;;8.32;3.53;;;;;;;;;;5017991;28;20102;-69
2023/04/12 12:12:13;;;;;;;11.00;3.97;;;;;;;;;;5025735;28;20090;-69
2023/04/12 12:14:39;;;;;;;11.30;2.90;;;;;;;;;;5012343;28;20044;-70
2023/04/12 12:17:10;;;;;;;10.00;4.03;;;;;;;;;;4990288;28;20380;-70
2023/04/12 12:19:38;;;;;;;9.77;3.33;;;;;;;;;;5031374;28;20045;-70
2023/04/12 12:22:14;;;;;;;11.50;3.17;;;;;;;;;;5015608;28;20155;-70
2023/04/12 12:24:53;;;;;;;9.00;2.60;;;;;;;;;;5027639;28;20041;-69
2023/04/12 12:27:21;;;;;;;12.32;4.50;;;;;;;;;;5022032;28;20398;-69
2023/04/12 12:29:54;;;;;;;8.75;3.22;;;;;;;;;;5027256;28;20103;-69
2023/04/12 12:32:24;;;;;;;6.28;2.45;;;;;;;;;;5015651;28;20049;-69
2023/04/12 12:34:52;;;;;;;5.72;2.50;;;;;;;;;;5016857;28;20080;-69
2023/04/12 12:37:20;;;;;;;10.85;3.10;;;;;;;;;;5026621;28;20062;-69
2023/04/12 12:40:22;;;;;;;10.68;3.45;;;;;;;;;;5028155;28;20517;-69
2023/04/12 12:42:50;;;;;;;11.02;3.10;;;;;;;;;;4981430;28;20049;-69
2023/04/12 12:45:17;;;;;;;7.93;2.70;;;;;;;;;;5027843;28;20059;-69
2023/04/12 12:47:47;;;;;;;8.68;2.85;;;;;;;;;;5024504;28;20044;-69
2023/04/12 12:50:15;;;;;;;8.32;3.63;;;;;;;;;;5023779;28;20170;-69
2023/04/12 12:52:42;;;;;;;9.38;2.25;;;;;;;;;;5013740;28;20072;-69
2023/04/12 12:55:08;;;;;;;6.15;1.75;;;;;;;;;;5030260;28;20045;-69
2023/04/12 12:57:35;;;;;;;11.25;3.25;;;;;;;;;;4996467;28;20445;-69
2023/04/12 13:00:03;;;;;;;7.82;2.10;;;;;;;;;;5027495;28;20068;-69
2023/04/12 13:02:29;;;;;;;7.15;2.13;;;;;;;;;;5028129;28;20064;-69
2023/04/12 13:04:56;;;;;;;4.97;2.22;;;;;;;;;;5012442;28;20100;-69
2023/04/12 13:07:22;;;;;;;7.35;2.10;;;;;;;;;;5027649;28;20123;-69
2023/04/12 13:09:48;;;;;;;4.97;2.10;;;;;;;;;;5036105;28;20053;-69
2023/04/12 13:12:15;;;;;;;6.70;2.75;;;;;;;;;;5030409;28;20041;-69
2023/04/12 13:14:41;;;;;;;4.70;1.98;;;;;;;;;;5030596;28;20040;-69
2023/04/12 13:17:07;;;;;;;9.15;2.10;;;;;;;;;;5026491;28;20056;-69
2023/04/12 13:19:33;;;;;;;7.72;2.63;;;;;;;;;;5030109;28;20510;-69
2023/04/12 13:21:59;;;;;;;7.95;2.30;;;;;;;;;;5015910;28;20076;-69
2023/04/12 13:24:26;;;;;;;11.45;2.00;;;;;;;;;;4995779;28;20483;-69
2023/04/12 13:26:52;;;;;;;6.35;3.03;;;;;;;;;;5028345;28;20387;-69
2023/04/12 13:29:18;;;;;;;10.30;3.40;;;;;;;;;;5028665;28;20058;-69
2023/04/12 13:31:44;;;;;;;9.23;3.25;;;;;;;;;;4996984;28;20143;-69
2023/04/12 13:34:10;;;;;;;9.57;2.83;;;;;;;;;;5009697;28;20515;-69
2023/04/12 13:36:37;;;;;;;6.80;2.10;;;;;;;;;;5032261;28;20401;-69
2023/04/12 13:39:03;;;;;;;12.02;2.50;;;;;;;;;;5021807;28;20045;-69
2023/04/12 13:41:31;;;;;;;12.77;3.00;;;;;;;;;;5027712;28;20128;-69
2023/04/12 13:43:58;;;;;;;6.85;2.58;;;;;;;;;;4995916;28;20327;-69
2023/04/12 13:46:24;;;;;;;7.85;3.03;;;;;;;;;;5013036;28;20498;-69
2023/04/12 13:48:50;;;;;;;10.63;3.65;;;;;;;;;;5027537;28;20040;-69
2023/04/12 13:51:16;;;;;;;8.80;3.22;;;;;;;;;;5007914;28;20184;-69
2023/04/12 13:53:43;;;;;;;6.75;1.98;;;;;;;;;;5024634;28;20041;-69
2023/04/12 13:56:10;;;;;;;4.85;2.05;;;;;;;;;;5014082;28;20045;-68
2023/04/12 13:58:38;;;;;;;9.23;2.25;;;;;;;;;;5031282;28;20136;-69
2023/04/12 14:01:08;;;;;;;6.78;2.20;;;;;;;;;;5013105;28;20144;-69
2023/04/12 14:03:35;;;;;;;8.90;2.45;;;10.90;99.90;;;;;;5011110;28;20028;-68
2023/04/12 14:06:01;;;;;;;6.55;2.17;;;;;;;;;;5013761;28;20064;-69
2023/04/12 14:08:30;;;;;;;6.28;2.33;;;;;;;;;;5026983;28;20057;-68
2023/04/12 14:10:57;;;;;;;9.43;3.25;;;;;;;;;;5007112;28;20127;-69
2023/04/12 14:13:23;;;;;;;7.78;2.80;;;;;;;;;;5011708;28;20045;-69
2023/04/12 14:15:50;;;;;;;9.85;3.00;;;;;;;;;;4994123;28;20139;-68
2023/04/12 14:18:16;;;;;;;6.85;2.35;;;;;;;;;;5043529;28;20045;-68
2023/04/12 14:20:45;;;;;;;10.40;2.97;;;;;;;;;;5012298;28;20056;-68
2023/04/12 14:23:12;;;;;;;7.93;2.53;;;;;;;;;;5026283;28;20060;-68
2023/04/12 14:25:39;;;;;;;9.13;2.58;;;;;;;;;;5003582;28;20037;-68
2023/04/12 14:28:05;;;;;;;9.98;2.42;;;;;;;;;;5032315;28;20406;-68
2023/04/12 14:30:32;;;;;;;9.43;2.90;;;;;;;;;;5026422;28;20049;-68
2023/04/12 14:32:58;;;;;;;8.75;3.22;;;;;;;;;;5007883;28;20047;-68
2023/04/12 14:35:24;;;;;;;9.30;4.00;;;;;;;;;;5040919;28;20403;-68
2023/04/12 14:37:50;;;;;;;7.18;3.15;;;;;;;;;;5025094;28;20136;-68
2023/04/12 14:40:17;;;;;;;8.07;3.05;;;;;;;;;;5026979;28;20498;-68